Time;durP1;ratioP1;P1;durP2;ratioP2;P2;SDS_P1;SDS_P2;PMS_P1;PMS_P2;Temp;Humidity;BMP_temperature;BMP_pressure;BME280_temperature;BME280_humidity;BME280_pressure;Samples;Min_cycle;Max_cycle;Signal;HPM_P1;HPM_P2
2020/12/05 00:02:23;;;;;;;2.00;1.50;;;17.10;52.00;;;;;;5004888;28;20786;-54
2020/12/05 00:04:49;;;;;;;1.90;1.57;;;17.00;52.60;;;;;;5000200;28;20591;-54
2020/12/05 00:07:15;;;;;;;1.40;1.20;;;17.00;52.00;;;;;;4999836;28;20220;-54
2020/12/05 00:09:41;;;;;;;2.77;1.30;;;17.00;52.00;;;;;;4999779;28;20220;-54
2020/12/05 00:12:10;;;;;;;1.40;1.30;;;17.00;52.00;;;;;;5018560;28;20243;-55
2020/12/05 00:14:53;;;;;;;1.93;1.50;;;17.00;52.10;;;;;;5015889;28;20226;-56
2020/12/05 00:17:19;;;;;;;2.37;1.47;;;17.00;52.00;;;;;;5017444;28;20238;-54
2020/12/05 00:19:46;;;;;;;2.00;1.43;;;17.00;52.10;;;;;;4997102;28;20806;-55
2020/12/05 00:22:16;;;;;;;2.47;1.80;;;17.00;52.10;;;;;;5007824;28;20235;-54
2020/12/05 00:24:43;;;;;;;2.27;1.60;;;17.00;52.10;;;;;;5006067;28;20311;-54
2020/12/05 00:27:09;;;;;;;3.43;1.60;;;17.00;52.20;;;;;;5006363;28;20687;-56
2020/12/05 00:29:35;;;;;;;2.23;1.50;;;17.00;52.20;;;;;;4997847;28;20219;-54
2020/12/05 00:32:06;;;;;;;1.87;1.23;;;17.00;52.20;;;;;;5021562;28;20349;-55
2020/12/05 00:34:32;;;;;;;1.73;1.20;;;17.00;52.30;;;;;;5019714;28;20711;-55
2020/12/05 00:36:59;;;;;;;2.30;1.63;;;16.90;52.50;;;;;;5016675;28;20219;-55
2020/12/05 00:39:25;;;;;;;3.33;1.50;;;16.90;52.50;;;;;;5006490;28;20700;-55
2020/12/05 00:41:54;;;;;;;1.60;1.40;;;16.90;52.50;;;;;;5006440;28;20234;-54
2020/12/05 00:44:20;;;;;;;1.47;1.23;;;16.90;52.50;;;;;;5007266;28;20227;-53
2020/12/05 00:46:46;;;;;;;3.37;1.47;;;16.90;52.40;;;;;;5014935;28;20610;-53
2020/12/05 00:49:13;;;;;;;2.37;1.50;;;16.90;52.50;;;;;;5019197;28;20237;-53
2020/12/05 00:51:39;;;;;;;3.70;1.30;;;16.90;52.50;;;;;;5011080;28;20305;-55
2020/12/05 00:54:05;;;;;;;2.07;1.50;;;16.90;52.50;;;;;;5027056;28;20717;-56
2020/12/05 00:56:31;;;;;;;2.73;1.43;;;16.90;52.50;;;;;;5019733;28;20230;-55
2020/12/05 00:58:58;;;;;;;2.87;1.70;;;16.90;52.50;;;;;;5022501;28;20645;-55
2020/12/05 01:01:24;;;;;;;1.80;1.33;;;16.90;52.50;;;;;;5017939;28;20234;-54
2020/12/05 01:03:51;;;;;;;1.50;1.40;;;16.90;52.50;;;;;;5026198;28;20229;-54
2020/12/05 01:06:17;;;;;;;3.80;1.47;;;16.80;52.50;;;;;;5009546;28;20651;-54
2020/12/05 01:08:44;;;;;;;1.63;1.30;;;16.90;52.60;;;;;;5007331;28;20215;-53
2020/12/05 01:11:18;;;;;;;1.80;1.23;;;16.90;52.60;;;;;;5020484;28;20246;-54
2020/12/05 01:13:46;;;;;;;3.20;1.60;;;16.90;52.60;;;;;;5029207;28;20230;-55
2020/12/05 01:16:14;;;;;;;6.80;1.50;;;16.80;52.60;;;;;;5024132;28;20289;-55
2020/12/05 01:18:41;;;;;;;2.97;1.30;;;16.80;52.60;;;;;;5030883;28;20690;-54
2020/12/05 01:21:09;;;;;;;1.53;1.43;;;16.80;52.60;;;;;;5022330;28;20227;-54
2020/12/05 01:23:35;;;;;;;1.90;1.60;;;16.80;52.60;;;;;;5026772;28;20230;-54
2020/12/05 01:26:07;;;;;;;3.10;1.20;;;16.80;52.60;;;;;;5030251;28;20222;-54
2020/12/05 01:28:34;;;;;;;1.40;1.30;;;16.80;52.70;;;;;;5027073;28;20234;-55
2020/12/05 01:31:01;;;;;;;1.13;1.03;;;16.80;52.70;;;;;;5015515;28;20709;-55
2020/12/05 01:33:27;;;;;;;2.27;1.80;;;16.80;52.70;;;;;;5005318;28;20799;-55
2020/12/05 01:36:04;;;;;;;2.67;1.37;;;16.80;52.70;;;;;;5011491;28;20239;-55
2020/12/05 01:38:31;;;;;;;2.03;1.50;;;16.80;52.70;;;;;;5017398;28;20241;-54
2020/12/05 01:40:58;;;;;;;3.07;1.40;;;16.80;52.70;;;;;;5019762;28;20230;-58
2020/12/05 01:43:26;;;;;;;1.80;1.23;;;16.80;52.80;;;;;;5024394;28;20589;-54
2020/12/05 01:45:55;;;;;;;1.20;1.10;;;16.70;52.80;;;;;;5030706;28;20233;-54
2020/12/05 01:48:22;;;;;;;3.90;1.20;;;16.70;52.80;;;;;;5016421;28;20717;-55
2020/12/05 01:50:49;;;;;;;1.87;1.30;;;16.70;52.80;;;;;;5018278;28;20239;-55
2020/12/05 01:53:16;;;;;;;2.27;1.00;;;16.70;52.80;;;;;;5002102;28;20238;-56
2020/12/05 01:55:46;;;;;;;1.53;1.37;;;16.70;52.80;;;;;;5026240;28;20234;-54
2020/12/05 01:58:14;;;;;;;1.80;1.27;;;16.70;52.90;;;;;;5008939;28;20906;-56
2020/12/05 02:00:41;;;;;;;1.57;1.27;;;16.70;52.90;;;;;;5022831;28;20636;-54
2020/12/05 02:03:07;;;;;;;1.93;1.30;;;16.70;52.90;;;;;;5023046;28;20227;-55
2020/12/05 02:05:40;;;;;;;1.70;1.20;;;16.80;52.90;;;;;;5027263;28;20293;-56
2020/12/05 02:08:18;;;;;;;2.43;1.33;;;16.70;52.90;;;;;;5021211;28;20729;-55
2020/12/05 02:10:49;;;;;;;1.73;1.20;;;16.70;52.90;;;;;;5012843;28;20250;-55
2020/12/05 02:13:25;;;;;;;6.23;1.47;;;16.70;52.90;;;;;;5026648;28;20222;-55
2020/12/05 02:15:54;;;;;;;2.10;1.20;;;16.70;52.90;;;;;;5020434;28;20705;-56
2020/12/05 02:18:20;;;;;;;1.83;1.57;;;16.70;52.90;;;;;;5009420;28;20227;-56
2020/12/05 02:20:48;;;;;;;1.60;1.20;;;16.70;52.90;;;;;;5007978;28;20262;-55
2020/12/05 02:23:16;;;;;;;1.80;1.60;;;16.60;53.00;;;;;;5008076;28;20558;-53
2020/12/05 02:25:46;;;;;;;1.50;1.37;;;16.70;53.00;;;;;;4994886;28;20259;-55
2020/12/05 02:28:15;;;;;;;1.53;1.23;;;16.60;53.00;;;;;;5010781;28;20726;-54
2020/12/05 02:30:42;;;;;;;1.83;1.30;;;16.70;53.00;;;;;;5005360;28;20607;-55
2020/12/05 02:33:08;;;;;;;1.37;1.10;;;16.60;53.00;;;;;;5024784;28;20289;-54
2020/12/05 02:35:35;;;;;;;1.30;1.20;;;16.60;53.00;;;;;;5008199;28;21588;-56
2020/12/05 02:38:31;;;;;;;1.70;1.20;;;16.60;53.00;;;;;;5009990;28;20254;-55
2020/12/05 02:41:00;;;;;;;1.20;1.10;;;16.60;53.10;;;;;;5023592;28;20223;-56
2020/12/05 02:43:27;;;;;;;1.83;1.40;;;16.60;53.60;;;;;;5028206;28;20227;-55
2020/12/05 02:45:54;;;;;;;2.00;1.40;;;16.60;53.10;;;;;;5020410;28;20679;-55
2020/12/05 02:48:21;;;;;;;2.97;1.70;;;16.60;53.10;;;;;;5009434;28;20232;-55
2020/12/05 02:50:47;;;;;;;1.57;1.37;;;16.60;53.10;;;;;;5003574;28;20258;-55
2020/12/05 02:53:14;;;;;;;1.67;1.40;;;16.60;53.10;;;;;;5019692;28;20274;-55
2020/12/05 02:55:45;;;;;;;1.40;1.30;;;16.60;53.20;;;;;;5023321;28;20239;-55
2020/12/05 02:58:11;;;;;;;2.13;1.30;;;16.60;53.20;;;;;;5007564;28;20235;-55
2020/12/05 03:00:37;;;;;;;1.57;1.40;;;16.50;53.10;;;;;;5009313;28;20227;-55
2020/12/05 03:03:04;;;;;;;1.60;1.13;;;16.60;53.30;;;;;;5015365;28;20235;-55
2020/12/05 03:05:30;;;;;;;2.90;1.50;;;16.60;53.20;;;;;;5025087;28;20289;-54
2020/12/05 03:07:57;;;;;;;1.33;1.23;;;16.50;53.20;;;;;;5012373;28;20223;-55
2020/12/05 03:10:23;;;;;;;2.73;1.53;;;16.60;53.30;;;;;;5008976;28;21100;-55
2020/12/05 03:12:49;;;;;;;1.37;1.20;;;16.50;53.30;;;;;;5003142;28;20224;-55
2020/12/05 03:15:15;;;;;;;2.10;1.90;;;16.50;53.30;;;;;;5007864;28;20244;-56
2020/12/05 03:17:41;;;;;;;2.00;1.57;;;16.50;53.30;;;;;;5011983;28;20265;-53
2020/12/05 03:20:08;;;;;;;1.73;1.30;;;16.50;53.30;;;;;;5016855;28;20232;-58
2020/12/05 03:22:34;;;;;;;1.60;1.37;;;16.50;53.30;;;;;;5003016;28;20239;-54
2020/12/05 03:25:02;;;;;;;2.50;1.70;;;16.50;53.30;;;;;;5009881;28;20667;-54
2020/12/05 03:27:28;;;;;;;2.40;1.57;;;16.50;53.30;;;;;;5018918;28;20293;-55
2020/12/05 03:29:55;;;;;;;1.50;1.40;;;16.50;53.40;;;;;;5023872;28;20239;-56
2020/12/05 03:32:25;;;;;;;2.27;1.37;;;16.50;53.40;;;;;;5022311;28;20284;-54
2020/12/05 03:34:52;;;;;;;2.17;1.63;;;16.50;53.40;;;;;;5028326;28;20215;-55
2020/12/05 03:37:22;;;;;;;1.93;1.33;;;16.50;53.40;;;;;;5022069;28;20804;-55
2020/12/05 03:39:48;;;;;;;2.30;1.60;;;16.50;53.50;;;;;;5027976;28;20211;-55
2020/12/05 03:42:14;;;;;;;1.83;1.50;;;16.50;53.50;;;;;;5022725;28;20828;-56
2020/12/05 03:44:40;;;;;;;3.83;1.80;;;16.40;53.40;;;;;;5026590;28;20235;-55
2020/12/05 03:47:07;;;;;;;1.90;1.30;;;16.50;53.50;;;;;;5023787;28;20234;-55
2020/12/05 03:49:33;;;;;;;2.73;1.47;;;16.50;53.40;;;;;;5025979;28;20234;-55
2020/12/05 03:52:03;;;;;;;2.20;1.67;;;16.40;53.50;;;;;;5026913;28;21432;-55
2020/12/05 03:54:29;;;;;;;2.93;1.30;;;16.50;54.10;;;;;;5020117;28;20679;-55
2020/12/05 03:56:57;;;;;;;2.60;1.43;;;16.40;53.40;;;;;;5022245;28;20695;-55
2020/12/05 03:59:23;;;;;;;1.53;1.40;;;16.40;53.50;;;;;;5020950;28;20215;-55
2020/12/05 04:01:50;;;;;;;2.83;1.70;;;16.40;53.50;;;;;;5030510;28;20230;-56
2020/12/05 04:04:16;;;;;;;1.33;1.10;;;16.40;53.50;;;;;;5022447;28;20234;-56
2020/12/05 04:06:42;;;;;;;1.50;1.27;;;16.40;53.50;;;;;;5028186;28;20222;-56
2020/12/05 04:09:08;;;;;;;3.40;1.70;;;16.40;53.50;;;;;;5022400;28;20235;-55
2020/12/05 04:11:40;;;;;;;3.07;1.60;;;16.40;53.50;;;;;;5028360;28;20285;-55
2020/12/05 04:14:10;;;;;;;3.43;1.40;;;16.40;53.50;;;;;;5021583;28;20252;-55
2020/12/05 04:16:37;;;;;;;2.13;1.43;;;16.40;53.50;;;;;;5022268;28;22242;-55
2020/12/05 04:19:04;;;;;;;1.70;1.50;;;16.40;53.50;;;;;;5023108;28;20226;-56
2020/12/05 04:21:30;;;;;;;1.60;1.37;;;16.40;53.50;;;;;;5026942;28;20565;-55
2020/12/05 04:23:56;;;;;;;2.00;1.53;;;16.40;53.60;;;;;;5020595;28;20253;-55
2020/12/05 04:26:23;;;;;;;2.47;1.67;;;16.30;53.50;;;;;;5027319;28;20235;-55
2020/12/05 04:28:50;;;;;;;3.57;1.73;;;16.30;53.50;;;;;;5021266;28;20753;-58
2020/12/05 04:31:17;;;;;;;3.57;1.57;;;16.30;53.70;;;;;;5025709;28;20234;-55
2020/12/05 04:33:43;;;;;;;1.70;1.40;;;16.30;53.60;;;;;;5027987;28;20221;-55
2020/12/05 04:36:09;;;;;;;1.90;1.70;;;16.30;53.60;;;;;;5021225;28;20223;-55
2020/12/05 04:38:35;;;;;;;2.03;1.20;;;16.30;53.70;;;;;;5027777;28;20222;-55
2020/12/05 04:41:03;;;;;;;1.70;1.57;;;16.30;53.70;;;;;;5018982;28;20240;-56
2020/12/05 04:43:29;;;;;;;1.33;1.10;;;16.30;53.70;;;;;;5026517;28;20225;-55
2020/12/05 04:45:56;;;;;;;1.53;1.40;;;16.30;53.70;;;;;;5024280;28;20230;-56
2020/12/05 04:48:23;;;;;;;2.07;1.80;;;16.30;53.70;;;;;;5026100;28;20234;-55
2020/12/05 04:50:53;;;;;;;1.57;1.20;;;16.30;53.80;;;;;;5020916;28;20231;-55
2020/12/05 04:53:21;;;;;;;1.53;1.43;;;16.30;53.70;;;;;;5025638;28;20229;-55
2020/12/05 04:55:56;;;;;;;2.63;1.53;;;16.30;53.70;;;;;;5020832;28;20791;-54
2020/12/05 04:58:24;;;;;;;2.80;1.80;;;16.30;53.70;;;;;;5025748;28;20233;-55
2020/12/05 05:00:52;;;;;;;2.73;1.77;;;16.30;53.70;;;;;;5021518;28;20223;-53
2020/12/05 05:03:24;;;;;;;2.60;1.53;;;16.30;53.80;;;;;;5020533;28;20889;-56
2020/12/05 05:05:57;;;;;;;1.80;1.40;;;16.20;53.80;;;;;;5017666;28;20311;-55
2020/12/05 05:08:25;;;;;;;2.57;1.60;;;16.30;53.80;;;;;;5023408;28;20866;-56
2020/12/05 05:11:08;;;;;;;2.23;1.60;;;16.20;53.80;;;;;;5021647;28;20227;-55
2020/12/05 05:13:56;;;;;;;1.80;1.40;;;16.20;53.80;;;;;;5024497;28;20219;-56
2020/12/05 05:16:25;;;;;;;1.93;1.50;;;16.20;53.90;;;;;;5018790;28;21653;-57
2020/12/05 05:18:52;;;;;;;1.93;1.43;;;16.20;53.90;;;;;;5027297;28;20238;-55
2020/12/05 05:21:38;;;;;;;1.53;1.43;;;16.20;53.80;;;;;;5016557;28;20227;-55
2020/12/05 05:24:12;;;;;;;1.40;1.30;;;16.30;53.90;;;;;;5024933;28;20812;-55
2020/12/05 05:26:38;;;;;;;3.07;1.60;;;16.30;53.90;;;;;;5016681;28;20973;-54
2020/12/05 05:29:05;;;;;;;2.77;1.40;;;16.20;53.90;;;;;;5026210;28;20576;-55
2020/12/05 05:31:47;;;;;;;2.07;1.70;;;16.20;53.90;;;;;;5021481;28;20312;-56
2020/12/05 05:34:22;;;;;;;1.73;1.50;;;16.20;53.90;;;;;;5024205;28;20305;-55
2020/12/05 05:36:49;;;;;;;1.73;1.53;;;16.20;54.00;;;;;;5020751;28;20629;-55
2020/12/05 05:39:17;;;;;;;2.33;1.60;;;16.20;54.20;;;;;;5020284;28;20289;-55
2020/12/05 05:41:48;;;;;;;3.73;1.20;;;16.20;54.40;;;;;;5027305;28;20223;-54
2020/12/05 05:44:20;;;;;;;1.70;1.50;;;16.20;54.50;;;;;;5022297;28;20222;-56
2020/12/05 05:46:49;;;;;;;4.80;1.80;;;16.20;54.80;;;;;;5020443;28;22238;-56
2020/12/05 05:49:33;;;;;;;3.43;1.83;;;16.20;54.80;;;;;;5019879;28;20428;-56
2020/12/05 05:52:03;;;;;;;4.03;1.77;;;16.20;54.60;;;;;;5020312;28;20222;-56
2020/12/05 05:54:34;;;;;;;2.60;1.37;;;16.20;54.60;;;;;;4996509;28;20850;-57
2020/12/05 05:57:05;;;;;;;2.83;1.40;;;16.20;55.00;;;;;;5001506;28;20651;-56
2020/12/05 05:59:42;;;;;;;3.90;1.40;;;16.20;55.10;;;;;;5003622;28;20707;-56
2020/12/05 06:02:14;;;;;;;2.63;1.80;;;16.20;54.80;;;;;;5009356;28;20242;-56
2020/12/05 06:04:42;;;;;;;2.90;1.77;;;16.20;54.80;;;;;;5012023;28;20231;-54
2020/12/05 06:07:13;;;;;;;6.07;1.70;;;16.20;54.70;;;;;;5013935;28;20255;-55
2020/12/05 06:09:46;;;;;;;4.17;1.63;;;16.20;54.60;;;;;;5007219;28;20227;-54
2020/12/05 06:12:23;;;;;;;2.87;1.90;;;16.20;54.50;;;;;;5028969;28;20231;-56
2020/12/05 06:14:51;;;;;;;1.90;1.47;;;16.20;54.50;;;;;;5018435;28;20278;-55
2020/12/05 06:17:20;;;;;;;1.93;1.60;;;16.20;54.40;;;;;;5012458;28;20676;-55
2020/12/05 06:19:48;;;;;;;2.60;1.50;;;16.20;55.00;;;;;;5019157;28;20230;-56
2020/12/05 06:22:23;;;;;;;3.10;1.57;;;16.10;54.40;;;;;;5027721;28;20577;-56
2020/12/05 06:25:05;;;;;;;2.53;1.70;;;16.10;54.30;;;;;;5020429;28;20320;-56
2020/12/05 06:27:35;;;;;;;5.00;1.73;;;16.20;54.20;;;;;;5026583;28;20468;-56
2020/12/05 06:30:05;;;;;;;5.03;1.93;;;16.10;54.20;;;;;;5005638;28;20243;-55
2020/12/05 06:32:40;;;;;;;4.93;1.90;;;16.10;54.10;;;;;;5006705;28;20231;-54
2020/12/05 06:35:21;;;;;;;1.53;1.43;;;16.20;54.00;;;;;;5005067;28;20231;-54
2020/12/05 06:37:50;;;;;;;2.60;1.87;;;16.10;53.90;;;;;;5025304;28;21026;-54
2020/12/05 06:40:16;;;;;;;2.63;2.20;;;16.10;53.90;;;;;;5013627;28;20280;-56
2020/12/05 06:42:45;;;;;;;4.60;1.70;;;16.10;53.80;;;;;;5023306;28;20237;-56
2020/12/05 06:45:36;;;;;;;2.40;1.87;;;16.10;53.80;;;;;;5011979;28;20223;-54
2020/12/05 06:48:09;;;;;;;2.63;1.60;;;16.10;53.70;;;;;;5009093;28;20219;-56
2020/12/05 06:50:40;;;;;;;2.60;2.07;;;16.10;53.80;;;;;;5016971;28;20844;-56
2020/12/05 06:53:21;;;;;;;3.20;2.00;;;16.10;53.70;;;;;;5027655;28;20226;-56
2020/12/05 06:55:54;;;;;;;2.40;2.00;;;16.10;53.70;;;;;;5020120;28;20242;-55
2020/12/05 06:58:29;;;;;;;2.90;2.00;;;16.10;53.60;;;;;;5026562;28;20477;-54
2020/12/05 07:00:56;;;;;;;2.20;1.70;;;16.10;53.60;;;;;;5017477;28;20233;-55
2020/12/05 07:03:30;;;;;;;4.97;1.60;;;16.10;53.60;;;;;;5027835;28;20215;-55
2020/12/05 07:05:58;;;;;;;1.97;1.60;;;16.10;53.60;;;;;;5001402;28;20230;-54
2020/12/05 07:08:36;;;;;;;3.10;1.77;;;16.10;53.60;;;;;;5021208;28;20222;-54
2020/12/05 07:11:04;;;;;;;2.83;2.10;;;16.10;53.60;;;;;;5014510;28;20218;-54
2020/12/05 07:13:48;;;;;;;2.53;2.00;;;16.00;53.60;;;;;;5016643;28;20721;-54
2020/12/05 07:16:19;;;;;;;2.73;1.87;;;16.00;53.60;;;;;;5016981;28;21131;-60
2020/12/05 07:18:50;;;;;;;3.13;1.70;;;16.10;53.50;;;;;;5026279;28;20215;-60
2020/12/05 07:21:17;;;;;;;4.93;2.00;;;16.10;53.50;;;;;;5002657;28;20239;-59
2020/12/05 07:23:43;;;;;;;7.17;1.77;;;16.10;53.40;;;;;;5012354;28;20232;-59
2020/12/05 07:26:11;;;;;;;3.70;2.03;;;16.10;53.40;;;;;;5013178;28;20285;-59
2020/12/05 07:28:43;;;;;;;6.20;2.00;;;16.10;53.30;;;;;;5005989;28;20707;-58
2020/12/05 07:31:09;;;;;;;3.00;2.00;;;16.00;53.30;;;;;;5014881;28;20234;-60
2020/12/05 07:33:38;;;;;;;2.80;1.73;;;16.00;53.30;;;;;;5008827;28;20235;-58
2020/12/05 07:36:05;;;;;;;2.87;1.73;;;16.00;53.30;;;;;;5005804;28;20253;-60
2020/12/05 07:38:34;;;;;;;2.57;1.60;;;16.00;53.20;;;;;;5008881;28;20235;-60
2020/12/05 07:41:13;;;;;;;2.17;1.80;;;16.00;53.20;;;;;;5021716;28;20231;-60
2020/12/05 07:43:40;;;;;;;3.57;1.93;;;16.00;53.30;;;;;;5010007;28;20261;-58
2020/12/05 07:46:09;;;;;;;3.83;1.70;;;16.00;53.30;;;;;;5027047;28;20230;-60
2020/12/05 07:48:36;;;;;;;18.00;4.97;;;16.00;53.30;;;;;;5019562;28;20702;-60
2020/12/05 07:51:09;;;;;;;20.00;5.87;;;16.00;54.00;;;;;;5016194;28;20243;-59
2020/12/05 07:53:35;;;;;;;35.67;7.00;;;16.00;55.00;;;;;;4994056;28;20224;-59
2020/12/05 07:56:21;;;;;;;27.03;7.00;;;16.00;55.30;;;;;;5008925;28;20235;-59
2020/12/05 07:58:50;;;;;;;23.77;6.77;;;16.00;55.70;;;;;;5000364;28;20243;-59
2020/12/05 08:01:29;;;;;;;29.00;6.70;;;16.00;55.60;;;;;;5007124;28;20231;-58
2020/12/05 08:04:34;;;;;;;35.37;6.57;;;16.00;55.50;;;;;;4996338;28;20218;-58
2020/12/05 08:07:03;;;;;;;49.43;7.07;;;16.10;55.70;;;;;;5004256;28;21788;-58
2020/12/05 08:09:36;;;;;;;18.43;6.27;;;16.00;55.00;;;;;;5016188;28;20649;-60
2020/12/05 08:12:05;;;;;;;16.17;5.67;;;16.10;54.70;;;;;;5002745;28;20227;-59
2020/12/05 08:14:33;;;;;;;14.83;5.60;;;16.10;54.60;;;;;;5019581;28;20725;-60
2020/12/05 08:17:01;;;;;;;16.40;5.67;;;16.10;54.50;;;;;;5026367;28;20234;-59
2020/12/05 08:19:28;;;;;;;16.60;5.40;;;16.00;54.40;;;;;;5016722;28;20657;-57
2020/12/05 08:21:59;;;;;;;12.60;5.17;;;16.00;54.30;;;;;;5022359;28;20284;-58
2020/12/05 08:24:25;;;;;;;15.67;4.93;;;16.00;54.40;;;;;;5023506;28;20742;-59
2020/12/05 08:26:52;;;;;;;15.40;4.67;;;16.00;54.30;;;;;;5026300;28;21719;-61
2020/12/05 08:29:19;;;;;;;13.97;4.00;;;16.60;53.80;;;;;;5022644;28;20223;-61
2020/12/05 08:31:46;;;;;;;10.70;4.23;;;17.00;53.30;;;;;;5025211;28;20230;-58
2020/12/05 08:34:13;;;;;;;13.47;3.90;;;17.40;52.80;;;;;;5007196;28;20234;-63
2020/12/05 08:36:43;;;;;;;15.57;4.20;;;17.60;51.90;;;;;;5025042;28;20237;-61
2020/12/05 08:39:14;;;;;;;15.27;3.93;;;17.80;51.60;;;;;;5020748;28;20863;-61
2020/12/05 08:41:41;;;;;;;12.47;3.60;;;18.00;51.30;;;;;;5021014;28;20230;-58
2020/12/05 08:44:18;;;;;;;12.53;3.27;;;18.20;50.80;;;;;;5019283;28;21724;-60
2020/12/05 08:46:45;;;;;;;24.70;3.90;;;18.30;50.40;;;;;;5017694;28;20241;-58
2020/12/05 08:49:20;;;;;;;14.73;3.20;;;18.60;50.30;;;;;;5027169;28;20235;-57
2020/12/05 08:51:57;;;;;;;7.93;3.00;;;18.70;50.30;;;;;;5019433;28;20225;-57
2020/12/05 08:54:28;;;;;;;7.13;3.07;;;18.80;49.80;;;;;;5018995;28;20222;-56
2020/12/05 08:57:09;;;;;;;6.00;2.73;;;18.90;49.40;;;;;;5019412;28;20553;-57
2020/12/05 08:59:36;;;;;;;6.17;2.57;;;19.00;49.30;;;;;;5020960;28;20222;-56
2020/12/05 09:02:02;;;;;;;4.07;2.23;;;19.10;49.00;;;;;;5014278;28;20237;-56
2020/12/05 09:04:31;;;;;;;4.13;2.30;;;19.20;48.90;;;;;;5018115;28;20246;-57
2020/12/05 09:07:17;;;;;;;4.30;2.10;;;19.30;48.60;;;;;;5015943;28;20227;-57
2020/12/05 09:09:46;;;;;;;3.83;2.13;;;19.40;48.40;;;;;;5025141;28;21415;-57
2020/12/05 09:12:17;;;;;;;4.97;2.30;;;19.50;48.20;;;;;;5017829;28;20231;-57
2020/12/05 09:14:47;;;;;;;4.47;2.10;;;19.50;48.10;;;;;;5022703;28;20229;-57
2020/12/05 09:17:23;;;;;;;3.53;2.13;;;19.40;48.00;;;;;;5018195;28;20223;-56
2020/12/05 09:19:51;;;;;;;3.63;2.10;;;19.70;48.20;;;;;;5024287;28;20796;-57
2020/12/05 09:22:32;;;;;;;5.50;2.07;;;19.80;47.90;;;;;;5017275;28;20223;-55
2020/12/05 09:24:59;;;;;;;4.37;1.93;;;20.00;47.70;;;;;;5024179;28;20269;-56
2020/12/05 09:27:38;;;;;;;6.47;2.33;;;20.10;47.30;;;;;;5015851;28;20238;-56
2020/12/05 09:30:07;;;;;;;6.03;2.07;;;20.10;47.20;;;;;;5017951;28;20226;-55
2020/12/05 09:32:37;;;;;;;2.57;2.10;;;20.10;47.30;;;;;;5017198;28;20273;-59
2020/12/05 09:35:04;;;;;;;5.80;2.50;;;20.20;47.50;;;;;;5024997;28;20234;-63
2020/12/05 09:37:31;;;;;;;4.33;2.33;;;20.40;47.30;;;;;;5020147;28;20594;-58
2020/12/05 09:39:57;;;;;;;3.43;2.33;;;20.50;47.10;;;;;;5028534;28;20226;-58
2020/12/05 09:42:24;;;;;;;4.90;2.17;;;20.60;47.10;;;;;;5014197;28;20230;-58
2020/12/05 09:44:51;;;;;;;5.13;2.57;;;20.50;47.50;;;;;;5021443;28;20975;-58
2020/12/05 09:47:18;;;;;;;5.37;2.30;;;20.50;48.40;;;;;;5021922;28;20579;-58
2020/12/05 09:49:45;;;;;;;5.13;2.30;;;20.50;49.00;;;;;;5029121;28;20589;-54
2020/12/05 09:52:12;;;;;;;5.27;2.07;;;20.60;49.30;;;;;;5028042;28;20223;-55
2020/12/05 09:54:38;;;;;;;3.63;2.20;;;20.60;50.20;;;;;;5025833;28;20227;-54
2020/12/05 09:57:05;;;;;;;5.17;2.27;;;20.60;50.70;;;;;;5026102;28;20225;-57
2020/12/05 09:59:33;;;;;;;3.43;2.00;;;20.70;51.40;;;;;;5021771;28;20310;-59
2020/12/05 10:02:06;;;;;;;2.10;1.63;;;20.80;51.60;;;;;;5021371;28;20587;-59
2020/12/05 10:04:32;;;;;;;2.57;1.70;;;20.80;51.20;;;;;;5019323;28;20245;-57
2020/12/05 10:06:59;;;;;;;4.23;1.63;;;20.90;51.20;;;;;;5032122;28;20234;-58
2020/12/05 10:09:25;;;;;;;2.00;1.67;;;20.80;51.00;;;;;;5020218;28;20277;-59
2020/12/05 10:11:52;;;;;;;3.17;1.53;;;20.80;51.40;;;;;;5022437;28;20230;-59
2020/12/05 10:14:18;;;;;;;2.47;1.53;;;20.90;51.10;;;;;;5018882;28;20725;-62
2020/12/05 10:16:45;;;;;;;4.13;1.73;;;20.90;51.20;;;;;;5020889;28;20252;-58
2020/12/05 10:19:11;;;;;;;4.53;1.80;;;20.90;51.10;;;;;;5003084;28;20240;-58
2020/12/05 10:21:37;;;;;;;2.80;1.50;;;20.90;51.20;;;;;;5025075;28;20229;-56
2020/12/05 10:24:03;;;;;;;3.07;1.43;;;20.90;51.60;;;;;;5020309;28;20597;-55
2020/12/05 10:26:30;;;;;;;2.30;1.30;;;21.00;51.30;;;;;;5026851;28;20280;-56
2020/12/05 10:28:56;;;;;;;1.80;1.30;;;21.00;51.40;;;;;;5018560;28;20230;-54
2020/12/05 10:31:22;;;;;;;1.30;1.03;;;21.00;51.30;;;;;;5029198;28;20230;-55
2020/12/05 10:33:49;;;;;;;2.40;1.40;;;21.00;51.10;;;;;;5023784;28;20251;-55
2020/12/05 10:36:19;;;;;;;5.20;1.10;;;21.10;51.10;;;;;;5017846;28;20426;-56
2020/12/05 10:38:46;;;;;;;4.00;1.37;;;21.20;51.00;;;;;;5026311;28;20257;-54
2020/12/05 10:41:13;;;;;;;2.00;1.00;;;21.10;51.20;;;;;;5018850;28;20230;-54
2020/12/05 10:43:39;;;;;;;3.23;1.10;;;21.20;51.20;;;;;;5027060;28;20242;-57
2020/12/05 10:46:15;;;;;;;1.57;1.43;;;21.20;50.70;;;;;;5020642;28;20228;-56
2020/12/05 10:48:42;;;;;;;3.73;1.50;;;21.20;51.50;;;;;;5025970;28;20226;-56
2020/12/05 10:51:08;;;;;;;2.13;1.30;;;20.80;53.10;;;;;;5014404;28;20231;-57
2020/12/05 10:53:34;;;;;;;3.10;1.30;;;20.60;53.30;;;;;;5022835;28;20226;-57
2020/12/05 10:56:00;;;;;;;1.93;1.27;;;20.30;53.30;;;;;;5018080;28;20722;-57
2020/12/05 10:58:26;;;;;;;1.33;1.10;;;20.20;53.60;;;;;;5028736;28;20350;-57
2020/12/05 11:00:53;;;;;;;3.80;1.13;;;20.00;53.80;;;;;;5021211;28;20222;-57
2020/12/05 11:03:19;;;;;;;3.03;1.50;;;20.00;53.60;;;;;;5022495;28;20235;-57
2020/12/05 11:05:45;;;;;;;1.33;1.10;;;20.00;53.60;;;;;;5019860;28;20242;-60
2020/12/05 11:08:12;;;;;;;2.17;1.30;;;19.90;53.70;;;;;;5017936;28;20239;-60
2020/12/05 11:10:38;;;;;;;1.30;1.20;;;19.80;53.60;;;;;;5022692;28;20631;-60
2020/12/05 11:13:05;;;;;;;1.90;1.40;;;19.80;53.70;;;;;;5029373;28;20227;-60
2020/12/05 11:15:31;;;;;;;1.60;1.20;;;19.70;53.50;;;;;;5025170;28;20230;-59
2020/12/05 11:17:57;;;;;;;1.50;1.20;;;19.70;53.60;;;;;;5008883;28;20223;-58
2020/12/05 11:20:23;;;;;;;2.13;1.10;;;19.70;53.70;;;;;;5028618;28;20226;-59
2020/12/05 11:22:50;;;;;;;1.47;1.03;;;19.60;53.80;;;;;;5013170;28;20312;-58
2020/12/05 11:25:16;;;;;;;2.10;1.27;;;19.60;53.70;;;;;;5026743;28;20721;-57
2020/12/05 11:27:43;;;;;;;2.47;1.20;;;19.60;53.80;;;;;;5019096;28;20289;-58
2020/12/05 11:30:09;;;;;;;1.67;1.20;;;19.50;53.70;;;;;;5028933;28;20230;-58
2020/12/05 11:32:37;;;;;;;1.17;1.00;;;19.50;53.60;;;;;;5017272;28;20223;-58
2020/12/05 11:35:07;;;;;;;1.70;1.10;;;19.50;53.60;;;;;;5015859;28;20233;-59
2020/12/05 11:37:33;;;;;;;2.37;1.10;;;19.50;53.70;;;;;;5015874;28;20237;-58
2020/12/05 11:40:00;;;;;;;4.13;1.00;;;19.40;53.60;;;;;;5026889;28;20234;-58
2020/12/05 11:42:32;;;;;;;3.47;0.80;;;19.40;55.00;;;;;;5015555;28;20231;-58
2020/12/05 11:45:03;;;;;;;2.73;0.93;;;19.60;54.40;;;;;;5016779;28;20296;-57
2020/12/05 11:47:30;;;;;;;2.97;1.00;;;19.70;53.90;;;;;;5018090;28;20233;-61
2020/12/05 11:49:57;;;;;;;1.13;0.90;;;19.80;53.40;;;;;;5025545;28;20441;-60
2020/12/05 11:52:23;;;;;;;3.03;1.10;;;19.90;53.70;;;;;;5017845;28;20216;-63
2020/12/05 11:54:49;;;;;;;1.40;1.00;;;19.90;53.40;;;;;;5026125;28;20234;-59
2020/12/05 11:57:16;;;;;;;5.27;1.30;;;20.00;53.40;;;;;;5027324;28;20727;-60
2020/12/05 11:59:42;;;;;;;2.07;1.13;;;20.00;53.00;;;;;;5023594;28;20933;-59
2020/12/05 12:02:10;;;;;;;3.87;1.10;;;20.00;53.00;;;;;;5026038;28;20233;-60
2020/12/05 12:04:40;;;;;;;2.27;1.17;;;20.10;52.90;;;;;;5023307;28;20222;-59
2020/12/05 12:07:07;;;;;;;1.70;1.10;;;20.10;52.50;;;;;;5027600;28;20233;-59
2020/12/05 12:09:33;;;;;;;2.53;1.37;;;20.10;52.60;;;;;;5019038;28;20238;-59
2020/12/05 12:12:01;;;;;;;1.30;1.10;;;20.10;52.40;;;;;;5026834;28;20214;-59
2020/12/05 12:14:27;;;;;;;1.80;1.17;;;20.10;52.10;;;;;;5021637;28;20238;-60
2020/12/05 12:16:54;;;;;;;1.47;1.00;;;20.20;52.20;;;;;;5029046;28;20234;-59
2020/12/05 12:19:20;;;;;;;1.20;0.83;;;20.20;52.10;;;;;;5023863;28;20234;-59
2020/12/05 12:21:47;;;;;;;1.43;1.00;;;20.20;52.10;;;;;;5026204;28;20230;-59
2020/12/05 12:24:15;;;;;;;11.73;1.50;;;20.20;52.00;;;;;;5023166;28;20238;-60
2020/12/05 12:26:42;;;;;;;2.43;1.10;;;20.20;52.20;;;;;;5025521;28;20349;-58
2020/12/05 12:29:08;;;;;;;1.40;1.00;;;20.20;52.50;;;;;;5024646;28;20218;-59
2020/12/05 12:31:34;;;;;;;1.87;1.33;;;20.20;51.90;;;;;;5027220;28;20231;-59
2020/12/05 12:34:01;;;;;;;2.33;1.20;;;20.20;51.90;;;;;;5026806;28;20230;-60
2020/12/05 12:36:27;;;;;;;4.70;1.10;;;20.30;51.70;;;;;;5018190;28;20226;-58
2020/12/05 12:38:54;;;;;;;5.67;1.33;;;20.30;52.20;;;;;;5032825;28;20219;-58
2020/12/05 12:41:20;;;;;;;3.10;1.10;;;20.30;52.10;;;;;;5027295;28;20246;-59
2020/12/05 12:43:47;;;;;;;2.97;1.30;;;20.30;52.00;;;;;;5028776;28;20226;-59
2020/12/05 12:46:16;;;;;;;3.10;1.13;;;20.30;51.70;;;;;;5025599;28;20285;-59
2020/12/05 12:48:42;;;;;;;2.80;1.27;;;20.30;51.60;;;;;;5030833;28;20281;-59
2020/12/05 12:51:09;;;;;;;7.10;1.30;;;20.30;51.40;;;;;;5025413;28;20234;-59
2020/12/05 12:53:36;;;;;;;6.43;0.90;;;20.30;51.20;;;;;;5029472;28;20231;-59
2020/12/05 12:56:04;;;;;;;11.00;1.10;;;20.30;51.50;;;;;;5027421;28;20234;-63